This is the latest recevied weather packets stored in our database for station/object CE3UOB-10. If no packets are shown the sender has not sent any weather packets the latest 1 day(s).
| Time | Temp. | Humidity | Pressure | Rain* | Wind** | Luminosity | Snow |
|---|---|---|---|---|---|---|---|
| 1778054902 | 12.22° C | 67% | 993.8 hPa | - | - | - | - |
| 1778054896 | 12.22° C | 67% | 993.8 hPa | - | - | - | - |
| 1778053096 | 12.22° C | 67% | 994.1 hPa | - | - | - | - |
| 1778051296 | 12.78° C | 65% | 994 hPa | - | - | - | - |
| 1778049503 | 13.33° C | 66% | 993.8 hPa | - | - | - | - |
| 1778049496 | 13.33° C | 66% | 993.8 hPa | - | - | - | - |
| 1778047702 | 12.78° C | 66% | 993.3 hPa | - | - | - | - |
| 1778047696 | 12.78° C | 66% | 993.3 hPa | - | - | - | - |
| 1778045902 | 13.33° C | 66% | 994 hPa | - | - | - | - |
| 1778045896 | 13.33° C | 66% | 994 hPa | - | - | - | - |
| 1778042304 | 15° C | 65% | 994.3 hPa | - | - | - | - |
| 1778042295 | 15° C | 65% | 994.3 hPa | - | - | - | - |
| 1778040504 | 15.56° C | 65% | 994.5 hPa | - | - | - | - |
| 1778040498 | 15.56° C | 65% | 994.5 hPa | - | - | - | - |
| 1778038704 | 16.11° C | 67% | 994.6 hPa | - | - | - | - |
| 1778038698 | 16.11° C | 67% | 994.6 hPa | - | - | - | - |
| 1778036904 | 16.11° C | 67% | 994.6 hPa | - | - | - | - |
| 1778036898 | 16.11° C | 67% | 994.6 hPa | - | - | - | - |
| 1778035104 | 16.67° C | 67% | 994.7 hPa | - | - | - | - |
| 1778035098 | 16.67° C | 67% | 994.7 hPa | - | - | - | - |
| 1778033304 | 16.11° C | 66% | 994.7 hPa | - | - | - | - |
| 1778033298 | 16.11° C | 66% | 994.7 hPa | - | - | - | - |
| 1778031504 | 16.11° C | 65% | 994.6 hPa | - | - | - | - |
| 1778031497 | 16.11° C | 65% | 994.6 hPa | - | - | - | - |
| 1778029704 | 15.56° C | 66% | 993.8 hPa | - | - | - | - |
* Rain since midnight (hover to see other rain measurements)
** Current wind speed in m/s (hover to see current wind gust speed)